ADDS METAR Data INFO
IDs: Format: Raw Decoded Include TAF

Data at: 1600 UTC 21 Sep 2017

METAR for:KVCT (Victoria Rgnl, TX, US)
Text:KVCT 211551Z 18010KT 10SM SCT026 31/24 A2996 RMK AO2 SLP143 T03060239
Temperature: 30.6°C ( 87°F)
Dewpoint: 23.9°C ( 75°F) [RH = 68%]
Pressure (altimeter):29.96 inches Hg (1014.6 mb) [Sea level pressure: 1014.3 mb]
Winds:from the S (180 degrees) at 12 MPH (10 knots; 5.1 m/s)
Visibility:10 or more sm (16+ km)
Ceiling:at least 12,000 feet AGL
Clouds: scattered clouds at 2600 feet AGL